createdAt,value
2022-11-05T00:00:16.009Z,8.60
2022-11-05T00:04:36.408Z,8.50
2022-11-05T00:08:57.704Z,8.30
2022-11-05T00:13:18.515Z,8.50
2022-11-05T00:17:20.539Z,8.30
2022-11-05T00:21:41.838Z,8.20
2022-11-05T00:25:44.026Z,8.30
2022-11-05T00:29:45.959Z,8.20
2022-11-05T00:33:48.048Z,8.10
2022-11-05T00:37:50.621Z,8.10
2022-11-05T00:42:11.120Z,8.20
2022-11-05T00:46:13.134Z,8.10
2022-11-05T00:50:15.276Z,8.10
2022-11-05T00:54:24.192Z,8.10
2022-11-05T00:58:29.123Z,8.10
2022-11-05T01:02:34.096Z,7.90
2022-11-05T01:06:38.824Z,7.70
2022-11-05T01:10:42.244Z,7.50
2022-11-05T01:14:51.134Z,7.60
2022-11-05T01:18:59.237Z,7.50
2022-11-05T01:23:14.398Z,7.60
2022-11-05T01:27:22.861Z,7.60
2022-11-05T01:31:25.393Z,7.60
2022-11-05T01:35:31.619Z,7.50
2022-11-05T01:39:33.298Z,7.60
2022-11-05T01:43:52.220Z,7.60
2022-11-05T01:48:00.833Z,7.70
2022-11-05T01:52:04.365Z,7.80
2022-11-05T01:56:11.624Z,7.90
2022-11-05T02:00:13.883Z,7.90
2022-11-05T02:04:18.299Z,7.90
2022-11-05T02:08:27.669Z,7.90
2022-11-05T02:12:30.220Z,7.90
2022-11-05T02:16:31.954Z,7.80
2022-11-05T02:20:44.824Z,8.00
2022-11-05T02:25:05.538Z,7.90
2022-11-05T02:29:28.142Z,7.90
2022-11-05T02:33:44.247Z,7.90
2022-11-05T02:42:05.144Z,7.70
2022-11-05T02:46:28.422Z,7.40
2022-11-05T02:50:39.667Z,7.50
2022-11-05T02:54:53.463Z,7.30
2022-11-05T02:58:55.189Z,7.30
2022-11-05T03:02:57.419Z,7.50
2022-11-05T03:07:08.385Z,7.60
2022-11-05T03:11:18.003Z,7.50
2022-11-05T03:15:40.906Z,7.50
2022-11-05T03:19:46.024Z,7.50
2022-11-05T03:24:04.105Z,7.60
2022-11-05T03:28:08.100Z,7.50
2022-11-05T03:32:11.204Z,7.70
2022-11-05T03:36:28.968Z,7.60
2022-11-05T03:40:35.461Z,7.90
2022-11-05T03:44:49.116Z,7.80
2022-11-05T03:48:53.001Z,7.80
2022-11-05T03:53:04.096Z,7.60
2022-11-05T03:57:24.086Z,7.50
2022-11-05T04:01:26.131Z,7.50
2022-11-05T04:05:32.775Z,7.60
2022-11-05T04:09:58.234Z,7.60
2022-11-05T04:14:00.887Z,7.60
2022-11-05T04:18:07.465Z,7.50
2022-11-05T04:22:31.046Z,7.40
2022-11-05T04:26:33.033Z,7.40
2022-11-05T04:30:34.695Z,7.30
2022-11-05T04:34:42.365Z,7.30
2022-11-05T04:38:47.769Z,7.30
2022-11-05T04:42:52.389Z,7.00
2022-11-05T04:47:02.621Z,7.00
2022-11-05T04:51:07.866Z,7.10
2022-11-05T04:55:11.842Z,7.00
2022-11-05T04:59:13.530Z,7.00
2022-11-05T05:03:18.147Z,7.10
2022-11-05T05:07:19.735Z,7.00
2022-11-05T05:11:24.613Z,7.00
2022-11-05T05:15:26.416Z,6.90
2022-11-05T05:19:28.043Z,6.80
2022-11-05T05:23:29.751Z,6.90
2022-11-05T05:27:31.607Z,6.80
2022-11-05T05:31:42.181Z,6.70
2022-11-05T05:35:46.267Z,6.80
2022-11-05T05:39:52.716Z,6.80
2022-11-05T05:43:57.423Z,6.70
2022-11-05T05:47:58.999Z,6.60
2022-11-05T05:52:03.253Z,6.60
2022-11-05T05:56:11.071Z,6.60
2022-11-05T06:00:20.055Z,6.60
2022-11-05T06:04:28.045Z,6.50
2022-11-05T06:08:32.631Z,6.50
2022-11-05T06:12:34.556Z,6.60
2022-11-05T06:16:36.727Z,6.60
2022-11-05T06:20:41.313Z,6.60
2022-11-05T06:24:44.656Z,6.60
2022-11-05T06:28:46.604Z,6.60
2022-11-05T06:32:49.481Z,6.80
2022-11-05T06:36:51.384Z,6.60
2022-11-05T06:40:53.185Z,6.60
2022-11-05T06:44:58.123Z,6.60
2022-11-05T06:48:59.921Z,6.50
2022-11-05T06:53:02.737Z,6.40
2022-11-05T06:57:04.450Z,6.50
2022-11-05T07:01:10.177Z,6.40
2022-11-05T07:05:12.326Z,6.40
2022-11-05T07:09:13.915Z,6.50
2022-11-05T07:13:16.278Z,6.50
2022-11-05T07:17:18.565Z,6.60
2022-11-05T07:21:20.254Z,6.70
2022-11-05T07:25:21.739Z,6.90
2022-11-05T07:29:24.759Z,7.00
2022-11-05T07:33:26.244Z,7.00
2022-11-05T07:37:27.771Z,7.10
2022-11-05T07:41:29.729Z,7.30
2022-11-05T07:45:31.581Z,7.30
2022-11-05T07:49:33.122Z,7.40
2022-11-05T07:53:34.713Z,7.50
2022-11-05T07:57:46.544Z,7.60
2022-11-05T08:01:48.247Z,7.80
2022-11-05T08:05:50.007Z,7.80
2022-11-05T08:09:51.549Z,7.80
2022-11-05T08:13:53.180Z,7.90
2022-11-05T08:18:01.478Z,7.90
2022-11-05T08:22:03.086Z,8.00
2022-11-05T08:26:08.098Z,8.10
2022-11-05T08:30:09.957Z,8.10
2022-11-05T08:34:11.641Z,8.30
2022-11-05T08:38:14.034Z,8.30
2022-11-05T08:42:15.609Z,8.50
2022-11-05T08:46:17.118Z,8.50
2022-11-05T08:50:18.775Z,8.70
2022-11-05T08:54:20.422Z,8.80
2022-11-05T08:58:40.192Z,8.90
2022-11-05T09:02:41.883Z,8.90
2022-11-05T09:06:43.602Z,9.10
2022-11-05T09:10:46.098Z,9.20
2022-11-05T09:14:47.670Z,9.10
2022-11-05T09:18:50.289Z,9.30
2022-11-05T09:22:52.669Z,9.30
2022-11-05T09:26:54.353Z,9.30
2022-11-05T09:30:56.177Z,9.40
2022-11-05T09:35:00.212Z,9.40
2022-11-05T09:39:01.857Z,9.50
2022-11-05T09:43:04.320Z,9.60
2022-11-05T09:47:08.592Z,9.70
2022-11-05T09:51:24.111Z,9.70
2022-11-05T09:55:52.373Z,9.70
2022-11-05T09:59:58.862Z,9.80
2022-11-05T10:04:02.020Z,9.80
2022-11-05T10:08:24.603Z,9.90
2022-11-05T10:12:30.416Z,10.20
2022-11-05T10:16:36.307Z,10.20
2022-11-05T10:20:38.962Z,10.30
2022-11-05T10:24:46.271Z,10.20
2022-11-05T10:28:48.635Z,10.30
2022-11-05T10:32:53.007Z,10.30
2022-11-05T10:36:54.623Z,10.10
2022-11-05T10:41:05.270Z,10.30
2022-11-05T10:45:18.439Z,10.40
2022-11-05T10:49:23.032Z,10.50
2022-11-05T10:53:30.257Z,10.50
2022-11-05T10:57:39.488Z,10.60
2022-11-05T11:01:41.370Z,10.40
2022-11-05T11:05:43.288Z,10.50
2022-11-05T11:09:49.809Z,10.50
2022-11-05T11:13:58.514Z,10.70
2022-11-05T11:18:17.436Z,10.40
2022-11-05T11:22:20.040Z,10.60
2022-11-05T11:26:23.061Z,10.60
2022-11-05T11:30:25.759Z,10.80
2022-11-05T11:34:27.474Z,10.60
2022-11-05T11:38:30.189Z,10.60
2022-11-05T11:42:33.841Z,10.50
2022-11-05T11:46:35.515Z,10.60
2022-11-05T11:50:38.977Z,10.70
2022-11-05T11:54:40.568Z,10.70
2022-11-05T11:58:46.934Z,10.70
2022-11-05T12:03:11.922Z,10.70
2022-11-05T12:07:22.652Z,10.70
2022-11-05T12:11:38.764Z,10.70
2022-11-05T12:15:43.391Z,10.70
2022-11-05T12:19:51.083Z,10.70
2022-11-05T12:24:11.617Z,10.80
2022-11-05T12:28:13.177Z,10.70
2022-11-05T12:32:24.039Z,10.60
2022-11-05T12:36:30.483Z,10.70
2022-11-05T12:40:45.594Z,10.70
2022-11-05T12:45:15.703Z,10.70
2022-11-05T12:49:23.386Z,10.80
2022-11-05T12:53:31.611Z,10.80
2022-11-05T12:57:36.971Z,11.00
2022-11-05T13:01:41.606Z,10.90
2022-11-05T13:05:49.402Z,11.00
2022-11-05T13:09:54.129Z,11.10
2022-11-05T13:13:59.469Z,11.20
2022-11-05T13:18:13.266Z,11.10
2022-11-05T13:22:24.075Z,11.10
2022-11-05T13:26:28.594Z,11.00
2022-11-05T13:30:32.429Z,11.20
2022-11-05T13:34:37.548Z,11.20
2022-11-05T13:38:59.014Z,11.10
2022-11-05T13:43:19.054Z,11.20
2022-11-05T13:47:26.903Z,11.20
2022-11-05T13:51:45.708Z,11.20
2022-11-05T13:56:16.676Z,11.10
2022-11-05T14:00:23.099Z,11.10
2022-11-05T14:04:41.094Z,11.10
2022-11-05T14:08:46.306Z,11.10
2022-11-05T14:12:49.943Z,11.10
2022-11-05T14:16:53.065Z,11.10
2022-11-05T14:21:05.085Z,11.00
2022-11-05T14:25:18.903Z,11.00
2022-11-05T14:29:22.056Z,10.90
2022-11-05T14:33:26.802Z,10.80
2022-11-05T14:38:00.924Z,10.80
2022-11-05T14:42:14.653Z,10.80
2022-11-05T14:46:16.624Z,10.70
2022-11-05T14:50:19.876Z,10.70
2022-11-05T14:54:24.948Z,10.70
2022-11-05T14:58:34.167Z,10.60
2022-11-05T15:02:37.399Z,10.60
2022-11-05T15:06:43.874Z,10.60
2022-11-05T15:10:45.876Z,10.40
2022-11-05T15:14:54.433Z,10.40
2022-11-05T15:18:58.809Z,10.40
2022-11-05T15:23:01.404Z,10.30
2022-11-05T15:27:06.864Z,10.20
2022-11-05T15:31:14.668Z,10.30
2022-11-05T15:35:18.207Z,10.20
2022-11-05T15:39:29.306Z,10.20
2022-11-05T15:43:32.456Z,10.10
2022-11-05T15:47:34.667Z,10.10
2022-11-05T15:51:36.440Z,10.10
2022-11-05T15:55:47.386Z,10.00
2022-11-05T15:59:49.360Z,9.90
2022-11-05T16:03:52.676Z,9.90
2022-11-05T16:07:57.446Z,9.80
2022-11-05T16:12:11.429Z,9.80
2022-11-05T16:16:16.051Z,9.80
2022-11-05T16:20:38.859Z,9.60
2022-11-05T16:24:40.719Z,9.40
2022-11-05T16:28:49.495Z,9.40
2022-11-05T16:32:51.541Z,9.40
2022-11-05T16:36:54.289Z,9.30
2022-11-05T16:40:55.993Z,9.30
2022-11-05T16:45:01.214Z,9.30
2022-11-05T16:49:02.786Z,9.30
2022-11-05T16:53:04.813Z,9.20
2022-11-05T16:57:07.730Z,9.20
2022-11-05T17:01:12.845Z,9.20
2022-11-05T17:05:17.723Z,9.20
2022-11-05T17:09:19.765Z,9.20
2022-11-05T17:13:27.204Z,9.20
2022-11-05T17:17:29.121Z,9.10
2022-11-05T17:21:30.841Z,9.20
2022-11-05T17:25:33.084Z,9.20
2022-11-05T17:29:36.482Z,9.20
2022-11-05T17:33:38.553Z,9.10
2022-11-05T17:37:42.437Z,9.10
2022-11-05T17:41:44.434Z,9.00
2022-11-05T17:45:47.322Z,9.10
2022-11-05T17:49:48.955Z,9.10
2022-11-05T17:53:51.144Z,9.00
2022-11-05T17:57:52.913Z,9.00
2022-11-05T18:01:55.183Z,9.00
2022-11-05T18:06:04.154Z,9.00
2022-11-05T18:10:11.683Z,9.00
2022-11-05T18:14:13.761Z,9.00
2022-11-05T18:18:15.473Z,9.00
2022-11-05T18:22:18.603Z,9.00
2022-11-05T18:26:20.507Z,9.10
2022-11-05T18:30:29.293Z,9.00
2022-11-05T18:34:31.496Z,9.00
2022-11-05T18:38:33.113Z,9.10
2022-11-05T18:42:34.738Z,9.20
2022-11-05T18:46:57.032Z,9.20
2022-11-05T18:51:01.887Z,9.20
2022-11-05T18:55:04.067Z,9.20
2022-11-05T18:59:34.485Z,9.20
2022-11-05T19:03:28.632Z,9.20
2022-11-05T19:07:32.099Z,9.20
2022-11-05T19:11:34.170Z,9.20
2022-11-05T19:15:35.779Z,9.20
2022-11-05T19:19:37.738Z,9.10
2022-11-05T19:23:39.543Z,9.20
2022-11-05T19:27:45.076Z,9.20
2022-11-05T19:31:47.088Z,9.20
2022-11-05T19:35:48.693Z,9.10
2022-11-05T19:39:50.283Z,9.20
2022-11-05T19:43:54.329Z,9.20
2022-11-05T19:47:56.098Z,9.20
2022-11-05T19:51:59.491Z,9.20
2022-11-05T19:56:21.482Z,9.20
2022-11-05T20:00:23.117Z,9.20
2022-11-05T20:04:24.861Z,9.10
2022-11-05T20:08:27.354Z,9.10
2022-11-05T20:12:29.065Z,9.20
2022-11-05T20:16:37.966Z,9.20
2022-11-05T20:20:40.175Z,9.20
2022-11-05T20:24:41.915Z,9.10
2022-11-05T20:28:43.960Z,9.20
2022-11-05T20:32:58.163Z,9.10
2022-11-05T20:37:06.371Z,9.20
2022-11-05T20:41:10.023Z,9.20
2022-11-05T20:45:11.991Z,9.20
2022-11-05T20:49:13.686Z,9.10
2022-11-05T20:53:16.051Z,9.20
2022-11-05T20:57:17.883Z,9.20
2022-11-05T21:01:20.051Z,9.20
2022-11-05T21:05:24.431Z,9.10
2022-11-05T21:09:26.427Z,9.20
2022-11-05T21:13:28.466Z,9.10
2022-11-05T21:17:30.321Z,9.10
2022-11-05T21:21:34.539Z,9.10
2022-11-05T21:25:40.044Z,9.10
2022-11-05T21:29:41.990Z,9.00
2022-11-05T21:33:43.836Z,9.00
2022-11-05T21:37:45.631Z,8.90
2022-11-05T21:41:47.523Z,8.90
2022-11-05T21:45:49.844Z,8.90
2022-11-05T21:49:52.059Z,8.90
2022-11-05T21:54:12.370Z,8.90
2022-11-05T21:58:34.179Z,8.80
2022-11-05T22:02:36.034Z,8.90
2022-11-05T22:06:37.948Z,8.90
2022-11-05T22:10:39.838Z,8.90
2022-11-05T22:14:41.761Z,8.90
2022-11-05T22:18:43.655Z,8.80
2022-11-05T22:22:45.495Z,8.80
2022-11-05T22:26:48.119Z,8.80
2022-11-05T22:30:50.017Z,8.80
2022-11-05T22:34:51.794Z,8.80
2022-11-05T22:38:54.008Z,8.80
2022-11-05T22:42:58.980Z,8.80
2022-11-05T22:47:00.951Z,8.70
2022-11-05T22:51:04.297Z,8.70
2022-11-05T22:55:06.375Z,8.70
2022-11-05T22:59:10.145Z,8.70
2022-11-05T23:03:12.459Z,8.60
2022-11-05T23:07:32.980Z,8.60
2022-11-05T23:11:38.659Z,8.60
2022-11-05T23:15:59.134Z,8.60
2022-11-05T23:20:29.869Z,8.60
2022-11-05T23:24:31.420Z,8.60
2022-11-05T23:28:33.030Z,8.60
2022-11-05T23:32:35.265Z,8.60
2022-11-05T23:36:56.365Z,8.60
2022-11-05T23:41:20.366Z,8.50
2022-11-05T23:45:40.477Z,8.60
2022-11-05T23:49:42.050Z,8.50
2022-11-05T23:53:43.753Z,8.50
2022-11-05T23:57:46.742Z,8.50
